sensor_id;sensor_type;location;lat;lon;timestamp;P1;durP1;ratioP1;P2;durP2;ratioP2
70132;SDS011;57495;49.922;7.966;2023-08-06T00:01:25;4.28;;;2.00;;
70132;SDS011;57495;49.922;7.966;2023-08-06T00:03:27;5.25;;;1.88;;
70132;SDS011;57495;49.922;7.966;2023-08-06T00:05:27;4.93;;;1.90;;
70132;SDS011;57495;49.922;7.966;2023-08-06T00:07:29;5.43;;;2.00;;
70132;SDS011;57495;49.922;7.966;2023-08-06T00:09:30;4.80;;;2.20;;
70132;SDS011;57495;49.922;7.966;2023-08-06T00:11:31;6.55;;;3.05;;
70132;SDS011;57495;49.922;7.966;2023-08-06T00:13:34;4.83;;;2.10;;
70132;SDS011;57495;49.922;7.966;2023-08-06T00:15:35;4.55;;;1.70;;
70132;SDS011;57495;49.922;7.966;2023-08-06T00:17:37;5.20;;;2.38;;
70132;SDS011;57495;49.922;7.966;2023-08-06T00:19:39;5.30;;;1.70;;
70132;SDS011;57495;49.922;7.966;2023-08-06T00:21:40;5.07;;;2.10;;
70132;SDS011;57495;49.922;7.966;2023-08-06T00:23:41;4.57;;;1.60;;
70132;SDS011;57495;49.922;7.966;2023-08-06T00:25:43;5.35;;;2.05;;
70132;SDS011;57495;49.922;7.966;2023-08-06T00:27:44;4.85;;;1.80;;
70132;SDS011;57495;49.922;7.966;2023-08-06T00:29:46;5.13;;;2.33;;
70132;SDS011;57495;49.922;7.966;2023-08-06T00:31:47;3.92;;;1.83;;
70132;SDS011;57495;49.922;7.966;2023-08-06T00:33:49;3.65;;;1.45;;
70132;SDS011;57495;49.922;7.966;2023-08-06T00:35:50;6.07;;;2.22;;
70132;SDS011;57495;49.922;7.966;2023-08-06T00:37:52;4.85;;;1.75;;
70132;SDS011;57495;49.922;7.966;2023-08-06T00:39:54;5.67;;;1.63;;
70132;SDS011;57495;49.922;7.966;2023-08-06T00:41:55;4.72;;;1.70;;
70132;SDS011;57495;49.922;7.966;2023-08-06T00:43:58;4.78;;;1.65;;
70132;SDS011;57495;49.922;7.966;2023-08-06T00:46:00;7.03;;;2.05;;
70132;SDS011;57495;49.922;7.966;2023-08-06T00:48:03;5.22;;;2.00;;
70132;SDS011;57495;49.922;7.966;2023-08-06T00:50:06;5.93;;;1.83;;
70132;SDS011;57495;49.922;7.966;2023-08-06T00:52:09;6.20;;;1.75;;
70132;SDS011;57495;49.922;7.966;2023-08-06T00:54:11;5.28;;;2.28;;
70132;SDS011;57495;49.922;7.966;2023-08-06T00:56:12;4.38;;;1.90;;
70132;SDS011;57495;49.922;7.966;2023-08-06T00:58:14;4.70;;;2.05;;
70132;SDS011;57495;49.922;7.966;2023-08-06T01:00:17;5.67;;;1.83;;
70132;SDS011;57495;49.922;7.966;2023-08-06T01:02:20;5.72;;;1.67;;
70132;SDS011;57495;49.922;7.966;2023-08-06T01:04:21;5.82;;;2.05;;
70132;SDS011;57495;49.922;7.966;2023-08-06T01:06:24;8.48;;;2.10;;
70132;SDS011;57495;49.922;7.966;2023-08-06T01:08:39;4.47;;;1.70;;
70132;SDS011;57495;49.922;7.966;2023-08-06T01:10:51;6.00;;;1.90;;
70132;SDS011;57495;49.922;7.966;2023-08-06T01:13:03;4.05;;;1.83;;
70132;SDS011;57495;49.922;7.966;2023-08-06T01:15:11;5.40;;;1.77;;
70132;SDS011;57495;49.922;7.966;2023-08-06T01:17:20;4.35;;;1.80;;
70132;SDS011;57495;49.922;7.966;2023-08-06T01:19:26;3.42;;;1.60;;
70132;SDS011;57495;49.922;7.966;2023-08-06T01:21:29;5.00;;;2.30;;
70132;SDS011;57495;49.922;7.966;2023-08-06T01:23:30;6.35;;;2.00;;
70132;SDS011;57495;49.922;7.966;2023-08-06T01:25:33;4.95;;;1.90;;
70132;SDS011;57495;49.922;7.966;2023-08-06T01:27:38;5.13;;;1.80;;
70132;SDS011;57495;49.922;7.966;2023-08-06T01:29:47;8.23;;;2.00;;
70132;SDS011;57495;49.922;7.966;2023-08-06T01:31:52;5.38;;;1.67;;
70132;SDS011;57495;49.922;7.966;2023-08-06T01:33:57;4.22;;;1.80;;
70132;SDS011;57495;49.922;7.966;2023-08-06T01:36:00;4.30;;;1.75;;
70132;SDS011;57495;49.922;7.966;2023-08-06T01:38:04;5.43;;;2.07;;
70132;SDS011;57495;49.922;7.966;2023-08-06T01:40:07;4.57;;;1.65;;
70132;SDS011;57495;49.922;7.966;2023-08-06T01:42:10;4.82;;;2.00;;
70132;SDS011;57495;49.922;7.966;2023-08-06T01:44:12;5.18;;;2.10;;
70132;SDS011;57495;49.922;7.966;2023-08-06T01:46:13;5.32;;;2.10;;
70132;SDS011;57495;49.922;7.966;2023-08-06T01:48:15;4.30;;;1.60;;
70132;SDS011;57495;49.922;7.966;2023-08-06T01:50:16;4.57;;;1.83;;
70132;SDS011;57495;49.922;7.966;2023-08-06T01:52:18;6.60;;;1.83;;
70132;SDS011;57495;49.922;7.966;2023-08-06T01:54:20;3.80;;;1.42;;
70132;SDS011;57495;49.922;7.966;2023-08-06T01:56:22;4.93;;;1.83;;
70132;SDS011;57495;49.922;7.966;2023-08-06T01:58:24;5.10;;;1.60;;
70132;SDS011;57495;49.922;7.966;2023-08-06T02:00:25;4.38;;;1.55;;
70132;SDS011;57495;49.922;7.966;2023-08-06T02:02:27;7.00;;;1.90;;
70132;SDS011;57495;49.922;7.966;2023-08-06T02:04:29;6.05;;;2.20;;
70132;SDS011;57495;49.922;7.966;2023-08-06T02:06:30;4.65;;;1.83;;
70132;SDS011;57495;49.922;7.966;2023-08-06T02:08:32;5.90;;;1.93;;
70132;SDS011;57495;49.922;7.966;2023-08-06T02:10:34;4.97;;;1.60;;
70132;SDS011;57495;49.922;7.966;2023-08-06T02:12:36;5.70;;;1.73;;
70132;SDS011;57495;49.922;7.966;2023-08-06T02:14:37;4.78;;;1.67;;
70132;SDS011;57495;49.922;7.966;2023-08-06T02:16:38;4.33;;;2.03;;
70132;SDS011;57495;49.922;7.966;2023-08-06T02:18:39;7.53;;;1.60;;
70132;SDS011;57495;49.922;7.966;2023-08-06T02:20:40;4.95;;;1.67;;
70132;SDS011;57495;49.922;7.966;2023-08-06T02:22:41;5.53;;;1.67;;
70132;SDS011;57495;49.922;7.966;2023-08-06T02:24:42;4.55;;;1.80;;
70132;SDS011;57495;49.922;7.966;2023-08-06T02:26:45;4.80;;;1.80;;
70132;SDS011;57495;49.922;7.966;2023-08-06T02:28:49;4.73;;;1.37;;
70132;SDS011;57495;49.922;7.966;2023-08-06T02:30:50;5.25;;;1.40;;
70132;SDS011;57495;49.922;7.966;2023-08-06T02:32:51;3.93;;;1.57;;
70132;SDS011;57495;49.922;7.966;2023-08-06T02:34:52;4.95;;;1.35;;
70132;SDS011;57495;49.922;7.966;2023-08-06T02:36:54;5.13;;;1.75;;
70132;SDS011;57495;49.922;7.966;2023-08-06T02:38:54;5.70;;;1.80;;
70132;SDS011;57495;49.922;7.966;2023-08-06T02:40:56;4.10;;;1.60;;
70132;SDS011;57495;49.922;7.966;2023-08-06T02:42:59;4.18;;;1.92;;
70132;SDS011;57495;49.922;7.966;2023-08-06T02:45:00;4.50;;;1.45;;
70132;SDS011;57495;49.922;7.966;2023-08-06T02:47:02;6.15;;;1.38;;
70132;SDS011;57495;49.922;7.966;2023-08-06T02:49:04;5.70;;;1.37;;
70132;SDS011;57495;49.922;7.966;2023-08-06T02:51:05;6.97;;;1.65;;
70132;SDS011;57495;49.922;7.966;2023-08-06T02:53:06;4.32;;;1.50;;
70132;SDS011;57495;49.922;7.966;2023-08-06T02:55:08;4.95;;;1.33;;
70132;SDS011;57495;49.922;7.966;2023-08-06T02:57:08;6.60;;;1.53;;
70132;SDS011;57495;49.922;7.966;2023-08-06T02:59:11;4.20;;;1.38;;
70132;SDS011;57495;49.922;7.966;2023-08-06T03:01:13;5.72;;;1.30;;
70132;SDS011;57495;49.922;7.966;2023-08-06T03:03:14;6.57;;;1.50;;
70132;SDS011;57495;49.922;7.966;2023-08-06T03:05:16;6.32;;;1.30;;
70132;SDS011;57495;49.922;7.966;2023-08-06T03:07:17;5.75;;;1.63;;
70132;SDS011;57495;49.922;7.966;2023-08-06T03:09:19;4.90;;;1.52;;
70132;SDS011;57495;49.922;7.966;2023-08-06T03:11:20;6.18;;;2.05;;
70132;SDS011;57495;49.922;7.966;2023-08-06T03:13:22;5.13;;;1.50;;
70132;SDS011;57495;49.922;7.966;2023-08-06T03:15:24;4.60;;;1.48;;
70132;SDS011;57495;49.922;7.966;2023-08-06T03:17:26;5.50;;;1.73;;
70132;SDS011;57495;49.922;7.966;2023-08-06T03:19:27;4.93;;;1.40;;
70132;SDS011;57495;49.922;7.966;2023-08-06T03:21:29;5.30;;;1.70;;
70132;SDS011;57495;49.922;7.966;2023-08-06T03:23:30;5.77;;;1.70;;
70132;SDS011;57495;49.922;7.966;2023-08-06T03:25:34;4.97;;;1.50;;
70132;SDS011;57495;49.922;7.966;2023-08-06T03:27:36;4.20;;;1.52;;
70132;SDS011;57495;49.922;7.966;2023-08-06T03:29:37;6.53;;;1.45;;
70132;SDS011;57495;49.922;7.966;2023-08-06T03:31:40;4.05;;;1.20;;
70132;SDS011;57495;49.922;7.966;2023-08-06T03:33:41;4.20;;;1.60;;
70132;SDS011;57495;49.922;7.966;2023-08-06T03:35:43;7.43;;;1.83;;
70132;SDS011;57495;49.922;7.966;2023-08-06T03:37:44;5.53;;;1.35;;
70132;SDS011;57495;49.922;7.966;2023-08-06T03:39:46;4.90;;;1.40;;
70132;SDS011;57495;49.922;7.966;2023-08-06T03:41:47;5.85;;;1.50;;
70132;SDS011;57495;49.922;7.966;2023-08-06T03:43:48;5.70;;;1.90;;
70132;SDS011;57495;49.922;7.966;2023-08-06T03:45:50;8.02;;;1.60;;
70132;SDS011;57495;49.922;7.966;2023-08-06T03:47:53;6.10;;;1.77;;
70132;SDS011;57495;49.922;7.966;2023-08-06T03:49:54;7.20;;;1.42;;
70132;SDS011;57495;49.922;7.966;2023-08-06T03:51:55;6.97;;;1.65;;
70132;SDS011;57495;49.922;7.966;2023-08-06T03:53:57;5.20;;;1.30;;
70132;SDS011;57495;49.922;7.966;2023-08-06T03:55:58;3.95;;;1.25;;
70132;SDS011;57495;49.922;7.966;2023-08-06T03:58:00;9.90;;;1.63;;
70132;SDS011;57495;49.922;7.966;2023-08-06T04:00:02;6.97;;;1.60;;
70132;SDS011;57495;49.922;7.966;2023-08-06T04:02:04;4.15;;;1.23;;
70132;SDS011;57495;49.922;7.966;2023-08-06T04:04:07;5.20;;;1.10;;
70132;SDS011;57495;49.922;7.966;2023-08-06T04:06:08;4.50;;;1.58;;
70132;SDS011;57495;49.922;7.966;2023-08-06T04:08:10;4.65;;;1.63;;
70132;SDS011;57495;49.922;7.966;2023-08-06T04:10:11;3.63;;;1.23;;
70132;SDS011;57495;49.922;7.966;2023-08-06T04:12:13;4.10;;;1.08;;
70132;SDS011;57495;49.922;7.966;2023-08-06T04:14:13;5.17;;;1.17;;
70132;SDS011;57495;49.922;7.966;2023-08-06T04:16:14;4.47;;;1.25;;
70132;SDS011;57495;49.922;7.966;2023-08-06T04:18:16;4.03;;;1.10;;
70132;SDS011;57495;49.922;7.966;2023-08-06T04:20:19;3.30;;;0.85;;
70132;SDS011;57495;49.922;7.966;2023-08-06T04:22:20;4.13;;;1.00;;
70132;SDS011;57495;49.922;7.966;2023-08-06T04:24:21;3.53;;;0.73;;
70132;SDS011;57495;49.922;7.966;2023-08-06T04:26:23;3.63;;;0.95;;
70132;SDS011;57495;49.922;7.966;2023-08-06T04:28:24;7.60;;;0.90;;
70132;SDS011;57495;49.922;7.966;2023-08-06T04:30:25;3.90;;;0.90;;
70132;SDS011;57495;49.922;7.966;2023-08-06T04:32:27;2.85;;;0.70;;
70132;SDS011;57495;49.922;7.966;2023-08-06T04:34:28;3.22;;;0.80;;
70132;SDS011;57495;49.922;7.966;2023-08-06T04:36:30;2.57;;;0.90;;
70132;SDS011;57495;49.922;7.966;2023-08-06T04:38:32;3.45;;;0.68;;
70132;SDS011;57495;49.922;7.966;2023-08-06T04:40:33;5.22;;;0.60;;
70132;SDS011;57495;49.922;7.966;2023-08-06T04:42:35;3.30;;;0.87;;
70132;SDS011;57495;49.922;7.966;2023-08-06T04:44:36;2.53;;;0.40;;
70132;SDS011;57495;49.922;7.966;2023-08-06T04:46:38;3.13;;;0.90;;
70132;SDS011;57495;49.922;7.966;2023-08-06T04:48:38;2.97;;;0.50;;
70132;SDS011;57495;49.922;7.966;2023-08-06T04:50:42;2.60;;;0.70;;
70132;SDS011;57495;49.922;7.966;2023-08-06T04:52:45;2.15;;;0.45;;
70132;SDS011;57495;49.922;7.966;2023-08-06T04:54:47;1.90;;;0.40;;
70132;SDS011;57495;49.922;7.966;2023-08-06T04:56:48;2.63;;;0.30;;
70132;SDS011;57495;49.922;7.966;2023-08-06T04:58:49;2.28;;;0.40;;
70132;SDS011;57495;49.922;7.966;2023-08-06T05:00:51;2.17;;;0.40;;
70132;SDS011;57495;49.922;7.966;2023-08-06T05:02:54;1.60;;;0.30;;
70132;SDS011;57495;49.922;7.966;2023-08-06T05:04:55;2.30;;;0.50;;
70132;SDS011;57495;49.922;7.966;2023-08-06T05:06:57;3.30;;;0.50;;
70132;SDS011;57495;49.922;7.966;2023-08-06T05:08:59;3.20;;;0.70;;
70132;SDS011;57495;49.922;7.966;2023-08-06T05:11:01;3.38;;;0.50;;
70132;SDS011;57495;49.922;7.966;2023-08-06T05:13:02;1.98;;;0.38;;
70132;SDS011;57495;49.922;7.966;2023-08-06T05:15:03;2.37;;;0.60;;
70132;SDS011;57495;49.922;7.966;2023-08-06T05:17:05;2.30;;;0.40;;
70132;SDS011;57495;49.922;7.966;2023-08-06T05:19:06;2.28;;;0.80;;
70132;SDS011;57495;49.922;7.966;2023-08-06T05:21:08;2.15;;;0.50;;
70132;SDS011;57495;49.922;7.966;2023-08-06T05:23:09;2.80;;;0.45;;
70132;SDS011;57495;49.922;7.966;2023-08-06T05:25:13;2.77;;;0.40;;
70132;SDS011;57495;49.922;7.966;2023-08-06T05:27:15;2.63;;;0.50;;
70132;SDS011;57495;49.922;7.966;2023-08-06T05:29:18;1.80;;;0.50;;
70132;SDS011;57495;49.922;7.966;2023-08-06T05:31:20;2.15;;;0.70;;
70132;SDS011;57495;49.922;7.966;2023-08-06T05:33:20;2.10;;;0.50;;
70132;SDS011;57495;49.922;7.966;2023-08-06T05:35:22;2.05;;;0.30;;
70132;SDS011;57495;49.922;7.966;2023-08-06T05:37:23;2.08;;;0.50;;
70132;SDS011;57495;49.922;7.966;2023-08-06T05:39:24;3.80;;;0.50;;
70132;SDS011;57495;49.922;7.966;2023-08-06T05:41:27;2.80;;;0.40;;
70132;SDS011;57495;49.922;7.966;2023-08-06T05:43:29;2.72;;;0.20;;
70132;SDS011;57495;49.922;7.966;2023-08-06T05:45:30;1.55;;;0.30;;
70132;SDS011;57495;49.922;7.966;2023-08-06T05:47:31;1.67;;;0.20;;
70132;SDS011;57495;49.922;7.966;2023-08-06T05:49:33;1.40;;;0.20;;
70132;SDS011;57495;49.922;7.966;2023-08-06T05:51:34;2.13;;;0.22;;
70132;SDS011;57495;49.922;7.966;2023-08-06T05:53:36;3.15;;;0.50;;
70132;SDS011;57495;49.922;7.966;2023-08-06T05:55:38;3.13;;;0.60;;
70132;SDS011;57495;49.922;7.966;2023-08-06T05:57:41;3.95;;;0.50;;
70132;SDS011;57495;49.922;7.966;2023-08-06T05:59:41;1.87;;;0.50;;
70132;SDS011;57495;49.922;7.966;2023-08-06T06:01:43;1.88;;;0.38;;
70132;SDS011;57495;49.922;7.966;2023-08-06T06:03:44;2.03;;;0.43;;
70132;SDS011;57495;49.922;7.966;2023-08-06T06:05:46;2.55;;;0.40;;
70132;SDS011;57495;49.922;7.966;2023-08-06T06:07:47;3.38;;;0.68;;
70132;SDS011;57495;49.922;7.966;2023-08-06T06:09:48;2.60;;;0.50;;
70132;SDS011;57495;49.922;7.966;2023-08-06T06:11:50;1.73;;;0.35;;
70132;SDS011;57495;49.922;7.966;2023-08-06T06:13:52;4.03;;;0.52;;
70132;SDS011;57495;49.922;7.966;2023-08-06T06:15:54;3.05;;;0.50;;
70132;SDS011;57495;49.922;7.966;2023-08-06T06:17:56;3.72;;;0.52;;
70132;SDS011;57495;49.922;7.966;2023-08-06T06:19:57;2.80;;;0.70;;
70132;SDS011;57495;49.922;7.966;2023-08-06T06:21:59;2.38;;;0.50;;
70132;SDS011;57495;49.922;7.966;2023-08-06T06:24:01;2.15;;;0.57;;
70132;SDS011;57495;49.922;7.966;2023-08-06T06:26:02;2.15;;;0.43;;
70132;SDS011;57495;49.922;7.966;2023-08-06T06:28:04;3.03;;;0.60;;
70132;SDS011;57495;49.922;7.966;2023-08-06T06:30:07;4.70;;;0.70;;
70132;SDS011;57495;49.922;7.966;2023-08-06T06:32:09;2.88;;;0.50;;
70132;SDS011;57495;49.922;7.966;2023-08-06T06:34:11;3.45;;;0.57;;
70132;SDS011;57495;49.922;7.966;2023-08-06T06:36:12;2.85;;;0.68;;
70132;SDS011;57495;49.922;7.966;2023-08-06T06:38:13;3.55;;;0.75;;
70132;SDS011;57495;49.922;7.966;2023-08-06T06:40:15;2.17;;;0.50;;
70132;SDS011;57495;49.922;7.966;2023-08-06T06:42:16;2.47;;;0.57;;
70132;SDS011;57495;49.922;7.966;2023-08-06T06:44:17;2.23;;;0.70;;
70132;SDS011;57495;49.922;7.966;2023-08-06T06:46:23;2.00;;;0.50;;
70132;SDS011;57495;49.922;7.966;2023-08-06T06:48:26;2.38;;;0.60;;
70132;SDS011;57495;49.922;7.966;2023-08-06T06:50:28;2.35;;;0.75;;
70132;SDS011;57495;49.922;7.966;2023-08-06T06:52:29;2.00;;;0.63;;
70132;SDS011;57495;49.922;7.966;2023-08-06T06:54:31;2.27;;;0.50;;
70132;SDS011;57495;49.922;7.966;2023-08-06T06:56:32;2.58;;;0.60;;
70132;SDS011;57495;49.922;7.966;2023-08-06T06:58:33;1.60;;;0.32;;
70132;SDS011;57495;49.922;7.966;2023-08-06T07:00:35;2.00;;;0.63;;
70132;SDS011;57495;49.922;7.966;2023-08-06T07:02:38;1.85;;;0.40;;
70132;SDS011;57495;49.922;7.966;2023-08-06T07:04:40;1.50;;;0.23;;
70132;SDS011;57495;49.922;7.966;2023-08-06T07:06:41;1.30;;;0.30;;
70132;SDS011;57495;49.922;7.966;2023-08-06T07:08:42;1.90;;;0.30;;
70132;SDS011;57495;49.922;7.966;2023-08-06T07:10:43;1.57;;;0.30;;
70132;SDS011;57495;49.922;7.966;2023-08-06T07:12:45;2.38;;;0.40;;
70132;SDS011;57495;49.922;7.966;2023-08-06T07:14:46;1.35;;;0.22;;
70132;SDS011;57495;49.922;7.966;2023-08-06T07:16:48;1.40;;;0.30;;
70132;SDS011;57495;49.922;7.966;2023-08-06T07:18:51;1.45;;;0.30;;
70132;SDS011;57495;49.922;7.966;2023-08-06T07:20:53;1.83;;;0.40;;
70132;SDS011;57495;49.922;7.966;2023-08-06T07:22:55;1.50;;;0.40;;
70132;SDS011;57495;49.922;7.966;2023-08-06T07:24:57;1.25;;;0.30;;
70132;SDS011;57495;49.922;7.966;2023-08-06T07:26:58;1.60;;;0.20;;
70132;SDS011;57495;49.922;7.966;2023-08-06T07:28:59;1.65;;;0.35;;
70132;SDS011;57495;49.922;7.966;2023-08-06T07:31:02;1.30;;;0.27;;
70132;SDS011;57495;49.922;7.966;2023-08-06T07:33:03;2.78;;;0.82;;
70132;SDS011;57495;49.922;7.966;2023-08-06T07:35:07;1.42;;;0.20;;
70132;SDS011;57495;49.922;7.966;2023-08-06T07:37:12;1.75;;;0.40;;
70132;SDS011;57495;49.922;7.966;2023-08-06T07:39:13;2.08;;;0.25;;
70132;SDS011;57495;49.922;7.966;2023-08-06T07:41:16;2.70;;;0.20;;
70132;SDS011;57495;49.922;7.966;2023-08-06T07:43:18;2.38;;;0.40;;
70132;SDS011;57495;49.922;7.966;2023-08-06T07:45:18;2.03;;;0.50;;
70132;SDS011;57495;49.922;7.966;2023-08-06T07:47:20;1.90;;;0.20;;
70132;SDS011;57495;49.922;7.966;2023-08-06T07:49:21;1.58;;;0.30;;
70132;SDS011;57495;49.922;7.966;2023-08-06T07:51:24;1.00;;;0.10;;
70132;SDS011;57495;49.922;7.966;2023-08-06T07:53:25;1.23;;;0.20;;
70132;SDS011;57495;49.922;7.966;2023-08-06T07:55:29;1.73;;;0.20;;
70132;SDS011;57495;49.922;7.966;2023-08-06T07:57:30;1.80;;;0.20;;
70132;SDS011;57495;49.922;7.966;2023-08-06T07:59:33;1.42;;;0.30;;
70132;SDS011;57495;49.922;7.966;2023-08-06T08:01:35;1.27;;;0.30;;
70132;SDS011;57495;49.922;7.966;2023-08-06T08:03:35;1.40;;;0.20;;
70132;SDS011;57495;49.922;7.966;2023-08-06T08:05:37;1.60;;;0.40;;
70132;SDS011;57495;49.922;7.966;2023-08-06T08:07:38;1.80;;;0.20;;
70132;SDS011;57495;49.922;7.966;2023-08-06T08:09:40;1.10;;;0.20;;
70132;SDS011;57495;49.922;7.966;2023-08-06T08:11:41;2.92;;;0.30;;
70132;SDS011;57495;49.922;7.966;2023-08-06T08:13:43;2.38;;;0.30;;
70132;SDS011;57495;49.922;7.966;2023-08-06T08:15:44;1.43;;;0.20;;
70132;SDS011;57495;49.922;7.966;2023-08-06T08:17:45;2.20;;;0.30;;
70132;SDS011;57495;49.922;7.966;2023-08-06T08:19:47;1.58;;;0.20;;
70132;SDS011;57495;49.922;7.966;2023-08-06T08:21:49;1.73;;;0.10;;
70132;SDS011;57495;49.922;7.966;2023-08-06T08:23:51;1.40;;;0.30;;
70132;SDS011;57495;49.922;7.966;2023-08-06T08:25:53;0.90;;;0.10;;
70132;SDS011;57495;49.922;7.966;2023-08-06T08:27:54;2.17;;;0.10;;
70132;SDS011;57495;49.922;7.966;2023-08-06T08:29:55;0.93;;;0.10;;
70132;SDS011;57495;49.922;7.966;2023-08-06T08:31:57;1.40;;;0.17;;
70132;SDS011;57495;49.922;7.966;2023-08-06T08:33:58;2.13;;;0.20;;
70132;SDS011;57495;49.922;7.966;2023-08-06T08:36:01;1.13;;;0.10;;
70132;SDS011;57495;49.922;7.966;2023-08-06T08:38:02;3.97;;;0.20;;
70132;SDS011;57495;49.922;7.966;2023-08-06T08:40:06;2.00;;;0.17;;
70132;SDS011;57495;49.922;7.966;2023-08-06T08:42:08;1.42;;;0.17;;
70132;SDS011;57495;49.922;7.966;2023-08-06T08:44:11;1.55;;;0.32;;
70132;SDS011;57495;49.922;7.966;2023-08-06T08:46:15;1.43;;;0.20;;
70132;SDS011;57495;49.922;7.966;2023-08-06T08:48:18;1.60;;;0.20;;
70132;SDS011;57495;49.922;7.966;2023-08-06T08:50:20;1.13;;;0.20;;
70132;SDS011;57495;49.922;7.966;2023-08-06T08:52:22;1.45;;;0.30;;
70132;SDS011;57495;49.922;7.966;2023-08-06T08:54:26;1.20;;;0.20;;
70132;SDS011;57495;49.922;7.966;2023-08-06T08:56:31;1.30;;;0.10;;
70132;SDS011;57495;49.922;7.966;2023-08-06T08:58:32;4.70;;;0.30;;
70132;SDS011;57495;49.922;7.966;2023-08-06T09:00:34;1.40;;;0.35;;
70132;SDS011;57495;49.922;7.966;2023-08-06T09:02:36;1.08;;;0.10;;
70132;SDS011;57495;49.922;7.966;2023-08-06T09:04:40;1.77;;;0.20;;
70132;SDS011;57495;49.922;7.966;2023-08-06T09:06:42;1.03;;;0.10;;
70132;SDS011;57495;49.922;7.966;2023-08-06T09:08:47;1.13;;;0.20;;
70132;SDS011;57495;49.922;7.966;2023-08-06T09:10:56;1.00;;;0.20;;
70132;SDS011;57495;49.922;7.966;2023-08-06T09:12:59;1.52;;;0.10;;
70132;SDS011;57495;49.922;7.966;2023-08-06T09:15:02;0.90;;;0.10;;
70132;SDS011;57495;49.922;7.966;2023-08-06T09:17:04;0.83;;;0.10;;
70132;SDS011;57495;49.922;7.966;2023-08-06T09:19:08;0.98;;;0.10;;
70132;SDS011;57495;49.922;7.966;2023-08-06T09:21:13;1.67;;;0.30;;
70132;SDS011;57495;49.922;7.966;2023-08-06T09:23:15;1.67;;;0.30;;
70132;SDS011;57495;49.922;7.966;2023-08-06T09:25:20;1.63;;;0.20;;
70132;SDS011;57495;49.922;7.966;2023-08-06T09:27:23;0.67;;;0.10;;
70132;SDS011;57495;49.922;7.966;2023-08-06T09:29:26;0.82;;;0.10;;
70132;SDS011;57495;49.922;7.966;2023-08-06T09:31:32;1.13;;;0.20;;
70132;SDS011;57495;49.922;7.966;2023-08-06T09:33:35;0.70;;;0.10;;
70132;SDS011;57495;49.922;7.966;2023-08-06T09:35:37;2.85;;;0.20;;
70132;SDS011;57495;49.922;7.966;2023-08-06T09:37:38;2.70;;;0.20;;
70132;SDS011;57495;49.922;7.966;2023-08-06T09:39:40;1.25;;;0.20;;
70132;SDS011;57495;49.922;7.966;2023-08-06T09:41:41;0.85;;;0.20;;
70132;SDS011;57495;49.922;7.966;2023-08-06T09:43:42;1.33;;;0.20;;
70132;SDS011;57495;49.922;7.966;2023-08-06T09:45:45;1.17;;;0.13;;
70132;SDS011;57495;49.922;7.966;2023-08-06T09:47:47;1.73;;;0.17;;
70132;SDS011;57495;49.922;7.966;2023-08-06T09:49:47;0.90;;;0.10;;
70132;SDS011;57495;49.922;7.966;2023-08-06T09:51:49;1.00;;;0.20;;
70132;SDS011;57495;49.922;7.966;2023-08-06T09:53:51;0.90;;;0.10;;
70132;SDS011;57495;49.922;7.966;2023-08-06T09:55:54;1.23;;;0.22;;
70132;SDS011;57495;49.922;7.966;2023-08-06T09:57:56;1.10;;;0.20;;
70132;SDS011;57495;49.922;7.966;2023-08-06T09:59:58;1.15;;;0.10;;
70132;SDS011;57495;49.922;7.966;2023-08-06T10:02:00;0.90;;;0.20;;
70132;SDS011;57495;49.922;7.966;2023-08-06T10:04:04;2.20;;;0.30;;
70132;SDS011;57495;49.922;7.966;2023-08-06T10:06:07;1.17;;;0.20;;
70132;SDS011;57495;49.922;7.966;2023-08-06T10:08:09;1.30;;;0.20;;
70132;SDS011;57495;49.922;7.966;2023-08-06T10:10:10;2.55;;;0.20;;
70132;SDS011;57495;49.922;7.966;2023-08-06T10:12:11;0.90;;;0.10;;
70132;SDS011;57495;49.922;7.966;2023-08-06T10:14:14;5.00;;;0.50;;
70132;SDS011;57495;49.922;7.966;2023-08-06T10:16:26;1.15;;;0.20;;
70132;SDS011;57495;49.922;7.966;2023-08-06T10:18:29;0.90;;;0.10;;
70132;SDS011;57495;49.922;7.966;2023-08-06T10:20:32;1.00;;;0.20;;
70132;SDS011;57495;49.922;7.966;2023-08-06T10:22:34;0.60;;;0.10;;
70132;SDS011;57495;49.922;7.966;2023-08-06T10:24:46;2.00;;;0.20;;
70132;SDS011;57495;49.922;7.966;2023-08-06T10:26:48;1.45;;;0.20;;
70132;SDS011;57495;49.922;7.966;2023-08-06T10:28:49;0.80;;;0.10;;
70132;SDS011;57495;49.922;7.966;2023-08-06T10:30:52;0.93;;;0.20;;
70132;SDS011;57495;49.922;7.966;2023-08-06T10:32:54;1.90;;;0.20;;
70132;SDS011;57495;49.922;7.966;2023-08-06T10:35:01;0.80;;;0.10;;
70132;SDS011;57495;49.922;7.966;2023-08-06T10:37:03;4.00;;;1.20;;
70132;SDS011;57495;49.922;7.966;2023-08-06T10:39:04;1.77;;;0.25;;
70132;SDS011;57495;49.922;7.966;2023-08-06T10:41:05;0.70;;;0.10;;
70132;SDS011;57495;49.922;7.966;2023-08-06T10:43:06;0.75;;;0.10;;
70132;SDS011;57495;49.922;7.966;2023-08-06T10:45:16;3.63;;;0.60;;
70132;SDS011;57495;49.922;7.966;2023-08-06T10:47:27;2.47;;;0.28;;
70132;SDS011;57495;49.922;7.966;2023-08-06T10:49:29;1.80;;;0.20;;
70132;SDS011;57495;49.922;7.966;2023-08-06T10:51:31;1.30;;;0.20;;
70132;SDS011;57495;49.922;7.966;2023-08-06T10:53:33;1.83;;;0.22;;
70132;SDS011;57495;49.922;7.966;2023-08-06T10:55:34;7.28;;;3.70;;
70132;SDS011;57495;49.922;7.966;2023-08-06T10:57:38;4.78;;;2.13;;
70132;SDS011;57495;49.922;7.966;2023-08-06T10:59:38;0.90;;;0.10;;
70132;SDS011;57495;49.922;7.966;2023-08-06T11:01:40;0.93;;;0.15;;
70132;SDS011;57495;49.922;7.966;2023-08-06T11:03:44;0.88;;;0.20;;
70132;SDS011;57495;49.922;7.966;2023-08-06T11:05:48;0.60;;;0.10;;
70132;SDS011;57495;49.922;7.966;2023-08-06T11:07:51;0.77;;;0.10;;
70132;SDS011;57495;49.922;7.966;2023-08-06T11:09:53;0.90;;;0.17;;
70132;SDS011;57495;49.922;7.966;2023-08-06T11:11:54;2.70;;;0.22;;
70132;SDS011;57495;49.922;7.966;2023-08-06T11:13:55;1.00;;;0.20;;
70132;SDS011;57495;49.922;7.966;2023-08-06T11:15:57;1.27;;;0.15;;
70132;SDS011;57495;49.922;7.966;2023-08-06T11:17:58;1.43;;;0.20;;
70132;SDS011;57495;49.922;7.966;2023-08-06T11:20:00;1.60;;;0.20;;
70132;SDS011;57495;49.922;7.966;2023-08-06T11:22:02;2.35;;;0.25;;
70132;SDS011;57495;49.922;7.966;2023-08-06T11:24:05;1.83;;;0.30;;
70132;SDS011;57495;49.922;7.966;2023-08-06T11:26:06;1.17;;;0.30;;
70132;SDS011;57495;49.922;7.966;2023-08-06T11:28:08;1.43;;;0.20;;
70132;SDS011;57495;49.922;7.966;2023-08-06T11:30:11;1.80;;;0.30;;
70132;SDS011;57495;49.922;7.966;2023-08-06T11:32:12;1.75;;;0.40;;
70132;SDS011;57495;49.922;7.966;2023-08-06T11:34:13;1.90;;;0.30;;
70132;SDS011;57495;49.922;7.966;2023-08-06T11:36:14;1.73;;;0.30;;
70132;SDS011;57495;49.922;7.966;2023-08-06T11:38:16;1.45;;;0.20;;
70132;SDS011;57495;49.922;7.966;2023-08-06T11:40:20;1.90;;;0.40;;
70132;SDS011;57495;49.922;7.966;2023-08-06T11:42:21;1.38;;;0.20;;
70132;SDS011;57495;49.922;7.966;2023-08-06T11:44:25;1.30;;;0.20;;
70132;SDS011;57495;49.922;7.966;2023-08-06T11:46:25;3.38;;;0.50;;
70132;SDS011;57495;49.922;7.966;2023-08-06T11:48:27;1.15;;;0.28;;
70132;SDS011;57495;49.922;7.966;2023-08-06T11:50:28;1.45;;;0.25;;
70132;SDS011;57495;49.922;7.966;2023-08-06T11:52:30;2.73;;;0.37;;
70132;SDS011;57495;49.922;7.966;2023-08-06T11:54:32;1.05;;;0.20;;
70132;SDS011;57495;49.922;7.966;2023-08-06T11:56:35;1.30;;;0.20;;
70132;SDS011;57495;49.922;7.966;2023-08-06T11:58:36;1.75;;;0.30;;
70132;SDS011;57495;49.922;7.966;2023-08-06T12:00:37;2.43;;;0.40;;
70132;SDS011;57495;49.922;7.966;2023-08-06T12:02:39;1.70;;;0.40;;
70132;SDS011;57495;49.922;7.966;2023-08-06T12:04:57;1.92;;;0.32;;
70132;SDS011;57495;49.922;7.966;2023-08-06T12:07:05;1.63;;;0.20;;
70132;SDS011;57495;49.922;7.966;2023-08-06T12:09:08;2.47;;;0.40;;
70132;SDS011;57495;49.922;7.966;2023-08-06T12:11:10;3.00;;;0.30;;
70132;SDS011;57495;49.922;7.966;2023-08-06T12:13:12;1.05;;;0.20;;
70132;SDS011;57495;49.922;7.966;2023-08-06T12:15:14;1.88;;;0.40;;
70132;SDS011;57495;49.922;7.966;2023-08-06T12:17:15;2.20;;;0.20;;